createdAt,value
2024-02-21T00:02:19.607Z,9.90
2024-02-21T00:05:21.444Z,9.90
2024-02-21T00:08:23.265Z,9.90
2024-02-21T00:11:25.630Z,9.90
2024-02-21T00:14:27.412Z,9.90
2024-02-21T00:17:29.168Z,9.90
2024-02-21T00:20:31.819Z,9.90
2024-02-21T00:23:33.544Z,9.90
2024-02-21T00:26:35.279Z,9.90
2024-02-21T00:29:37.183Z,9.90
2024-02-21T00:32:38.981Z,9.90
2024-02-21T00:35:40.759Z,10.00
2024-02-21T00:38:42.577Z,9.90
2024-02-21T00:41:44.556Z,10.00
2024-02-21T00:44:46.298Z,10.00
2024-02-21T00:47:48.156Z,10.00
2024-02-21T00:50:50.188Z,9.90
2024-02-21T00:53:51.877Z,9.90
2024-02-21T00:56:53.621Z,9.90
2024-02-21T00:59:55.485Z,9.90
2024-02-21T01:02:57.199Z,9.90
2024-02-21T01:05:59.094Z,9.90
2024-02-21T01:09:00.841Z,9.90
2024-02-21T01:12:04.013Z,9.90
2024-02-21T01:15:06.161Z,9.90
2024-02-21T01:18:07.985Z,9.90
2024-02-21T01:21:11.026Z,9.80
2024-02-21T01:24:12.854Z,9.80
2024-02-21T01:27:14.574Z,9.80
2024-02-21T01:30:16.650Z,9.80
2024-02-21T01:33:18.538Z,9.80
2024-02-21T01:36:20.333Z,9.80
2024-02-21T01:39:22.582Z,9.80
2024-02-21T01:42:24.628Z,9.80
2024-02-21T01:45:26.360Z,9.80
2024-02-21T01:48:28.293Z,9.80
2024-02-21T01:51:30.217Z,9.80
2024-02-21T01:54:32.228Z,9.80
2024-02-21T01:57:33.948Z,9.80
2024-02-21T02:00:35.824Z,9.80
2024-02-21T02:03:37.977Z,9.80
2024-02-21T02:06:39.751Z,9.80
2024-02-21T02:09:41.712Z,9.80
2024-02-21T02:12:43.649Z,9.90
2024-02-21T02:15:46.068Z,9.90
2024-02-21T02:18:47.761Z,9.80
2024-02-21T02:21:57.627Z,9.90
2024-02-21T02:24:59.675Z,9.90
2024-02-21T02:28:01.385Z,9.90
2024-02-21T02:31:03.437Z,9.90
2024-02-21T02:34:05.342Z,9.90
2024-02-21T02:37:07.111Z,9.90
2024-02-21T02:40:09.576Z,9.90
2024-02-21T02:43:11.309Z,9.90
2024-02-21T02:46:13.096Z,9.90
2024-02-21T02:49:15.039Z,9.90
2024-02-21T02:52:16.963Z,9.90
2024-02-21T02:55:18.812Z,9.90
2024-02-21T02:58:20.703Z,9.90
2024-02-21T03:01:23.768Z,9.90
2024-02-21T03:04:25.612Z,9.90
2024-02-21T03:07:27.869Z,9.90
2024-02-21T03:10:30.135Z,9.90
2024-02-21T03:13:31.974Z,9.90
2024-02-21T03:16:33.697Z,9.90
2024-02-21T03:19:35.717Z,9.90
2024-02-21T03:22:41.096Z,9.90
2024-02-21T03:25:43.040Z,9.90
2024-02-21T03:28:47.616Z,9.80
2024-02-21T03:31:50.894Z,9.80
2024-02-21T03:34:52.710Z,9.80
2024-02-21T03:37:54.860Z,9.80
2024-02-21T03:40:56.811Z,9.80
2024-02-21T03:43:58.608Z,9.80
2024-02-21T03:47:01.831Z,9.80
2024-02-21T03:50:05.863Z,9.80
2024-02-21T03:53:07.755Z,9.80
2024-02-21T03:56:09.523Z,9.80
2024-02-21T03:59:11.222Z,9.80
2024-02-21T04:02:13.057Z,9.80
2024-02-21T04:05:17.420Z,9.70
2024-02-21T04:08:19.282Z,9.70
2024-02-21T04:11:21.218Z,9.70
2024-02-21T04:14:22.934Z,9.70
2024-02-21T04:17:24.678Z,9.70
2024-02-21T04:20:26.688Z,9.70
2024-02-21T04:23:28.434Z,9.70
2024-02-21T04:26:30.189Z,9.60
2024-02-21T04:29:32.258Z,9.60
2024-02-21T04:32:34.062Z,9.60
2024-02-21T04:35:37.740Z,9.60
2024-02-21T04:38:40.254Z,9.60
2024-02-21T04:41:41.965Z,9.60
2024-02-21T04:44:43.902Z,9.60
2024-02-21T04:47:45.754Z,9.60
2024-02-21T04:50:47.624Z,9.60
2024-02-21T04:53:49.370Z,9.60
2024-02-21T04:56:53.737Z,9.60
2024-02-21T04:59:56.017Z,9.50
2024-02-21T05:02:57.845Z,9.50
2024-02-21T05:06:00.574Z,9.50
2024-02-21T05:09:02.403Z,9.50
2024-02-21T05:12:05.459Z,9.50
2024-02-21T05:15:07.865Z,9.50
2024-02-21T05:18:09.695Z,9.50
2024-02-21T05:21:11.895Z,9.50
2024-02-21T05:24:13.657Z,9.50
2024-02-21T05:27:15.387Z,9.50
2024-02-21T05:30:17.416Z,9.50
2024-02-21T05:33:22.647Z,9.50
2024-02-21T05:36:24.627Z,9.50
2024-02-21T05:39:26.822Z,9.50
2024-02-21T05:42:28.528Z,9.50
2024-02-21T05:45:30.340Z,9.50
2024-02-21T05:48:34.244Z,9.50
2024-02-21T05:51:38.262Z,9.40
2024-02-21T05:54:40.980Z,9.30
2024-02-21T05:57:42.715Z,9.10
2024-02-21T06:00:45.572Z,8.90
2024-02-21T06:03:47.402Z,8.90
2024-02-21T06:06:49.154Z,8.80
2024-02-21T06:09:51.167Z,8.80
2024-02-21T06:12:52.962Z,8.80
2024-02-21T06:15:54.712Z,8.80
2024-02-21T06:18:56.450Z,8.80
2024-02-21T06:21:58.354Z,8.80
2024-02-21T06:25:00.522Z,8.80
2024-02-21T06:28:02.320Z,8.80
2024-02-21T06:31:04.306Z,8.80
2024-02-21T06:34:06.179Z,8.70
2024-02-21T06:37:07.941Z,8.70
2024-02-21T06:40:10.033Z,8.80
2024-02-21T06:43:11.752Z,8.70
2024-02-21T06:46:13.520Z,8.70
2024-02-21T06:49:18.222Z,8.70
2024-02-21T06:52:23.986Z,8.80
2024-02-21T06:55:25.766Z,8.70
2024-02-21T06:58:27.515Z,8.80
2024-02-21T07:01:31.326Z,8.70
2024-02-21T07:04:33.423Z,8.70
2024-02-21T07:07:36.387Z,8.70
2024-02-21T07:10:38.639Z,8.70
2024-02-21T07:13:40.470Z,8.70
2024-02-21T07:16:42.386Z,8.70
2024-02-21T07:19:44.469Z,8.80
2024-02-21T07:22:46.287Z,8.80
2024-02-21T07:25:48.103Z,8.80
2024-02-21T07:28:49.927Z,8.80
2024-02-21T07:31:53.073Z,8.80
2024-02-21T07:34:55.014Z,8.80
2024-02-21T07:37:56.927Z,8.80
2024-02-21T07:40:58.796Z,8.80
2024-02-21T07:44:01.084Z,8.80
2024-02-21T07:47:02.990Z,8.80
2024-02-21T07:50:06.348Z,8.80
2024-02-21T07:53:08.144Z,8.90
2024-02-21T07:56:10.482Z,8.90
2024-02-21T07:59:14.335Z,8.90
2024-02-21T08:02:16.363Z,8.90
2024-02-21T08:05:18.397Z,9.00
2024-02-21T08:08:22.612Z,9.00
2024-02-21T08:11:24.688Z,9.00
2024-02-21T08:14:26.486Z,9.00
2024-02-21T08:17:28.428Z,9.10
2024-02-21T08:20:30.393Z,9.10
2024-02-21T08:23:32.139Z,9.10
2024-02-21T08:26:33.948Z,9.10
2024-02-21T08:29:36.896Z,9.10
2024-02-21T08:32:38.961Z,9.20
2024-02-21T08:35:40.714Z,9.20
2024-02-21T08:38:42.417Z,9.20
2024-02-21T08:41:52.430Z,9.20
2024-02-21T08:44:58.966Z,9.30
2024-02-21T08:48:00.932Z,9.30
2024-02-21T08:51:03.034Z,9.30
2024-02-21T08:54:04.884Z,9.30
2024-02-21T08:57:06.600Z,9.30
2024-02-21T09:00:11.732Z,9.30
2024-02-21T09:03:13.472Z,9.30
2024-02-21T09:06:15.386Z,9.40
2024-02-21T09:09:18.138Z,9.40
2024-02-21T09:12:19.979Z,9.40
2024-02-21T09:15:21.745Z,9.40
2024-02-21T09:18:23.616Z,9.40
2024-02-21T09:21:25.545Z,9.50
2024-02-21T09:24:27.387Z,9.50
2024-02-21T09:27:29.424Z,9.50
2024-02-21T09:30:31.596Z,9.50
2024-02-21T09:33:33.721Z,9.50
2024-02-21T09:36:35.507Z,9.50
2024-02-21T09:39:37.376Z,9.50
2024-02-21T09:42:40.225Z,9.50
2024-02-21T09:45:41.996Z,9.50
2024-02-21T09:48:48.030Z,9.60
2024-02-21T09:51:51.131Z,9.60
2024-02-21T09:54:53.753Z,9.50
2024-02-21T09:57:55.508Z,9.50
2024-02-21T10:00:59.650Z,9.60
2024-02-21T10:04:01.436Z,9.60
2024-02-21T10:07:03.874Z,9.50
2024-02-21T10:10:06.299Z,9.60
2024-02-21T10:13:08.919Z,9.60
2024-02-21T10:16:10.915Z,9.60
2024-02-21T10:19:20.109Z,9.60
2024-02-21T10:22:22.234Z,9.60
2024-02-21T10:25:24.157Z,9.60
2024-02-21T10:28:25.934Z,9.60
2024-02-21T10:31:29.159Z,9.60
2024-02-21T10:34:31.113Z,9.60
2024-02-21T10:37:35.935Z,9.60
2024-02-21T10:40:37.975Z,9.60
2024-02-21T10:43:41.781Z,9.60
2024-02-21T10:46:43.817Z,9.60
2024-02-21T10:49:49.461Z,9.60
2024-02-21T10:52:59.037Z,9.60
2024-02-21T10:56:08.365Z,9.70
2024-02-21T10:59:10.781Z,9.70
2024-02-21T11:02:12.744Z,9.70
2024-02-21T11:05:14.798Z,9.70
2024-02-21T11:08:16.621Z,9.70
2024-02-21T11:11:27.693Z,9.70
2024-02-21T11:14:40.603Z,9.70
2024-02-21T11:17:47.677Z,9.80
2024-02-21T11:20:52.719Z,9.80
2024-02-21T11:23:58.723Z,9.90
2024-02-21T11:27:16.945Z,9.90
2024-02-21T11:30:23.674Z,9.90
2024-02-21T11:33:25.470Z,10.00
2024-02-21T11:36:27.721Z,10.00
2024-02-21T11:39:29.633Z,9.90
2024-02-21T11:42:31.632Z,10.00
2024-02-21T11:45:34.222Z,10.00
2024-02-21T11:48:35.925Z,10.00
2024-02-21T11:51:37.967Z,10.10
2024-02-21T11:54:39.664Z,10.10
2024-02-21T11:57:44.333Z,10.00
2024-02-21T12:00:46.671Z,10.00
2024-02-21T12:03:50.687Z,10.00
2024-02-21T12:06:56.184Z,10.00
2024-02-21T12:10:01.591Z,10.00
2024-02-21T12:13:08.466Z,10.00
2024-02-21T12:16:10.398Z,10.10
2024-02-21T12:19:14.009Z,10.10
2024-02-21T12:22:21.986Z,10.10
2024-02-21T12:25:24.662Z,10.10
2024-02-21T12:28:27.203Z,10.20
2024-02-21T12:31:29.173Z,10.20
2024-02-21T12:34:43.373Z,10.20
2024-02-21T12:37:50.772Z,10.30
2024-02-21T12:40:52.624Z,10.40
2024-02-21T12:43:54.749Z,10.40
2024-02-21T12:46:56.630Z,10.50
2024-02-21T12:49:58.834Z,10.50
2024-02-21T12:53:01.050Z,10.50
2024-02-21T12:56:02.962Z,10.50
2024-02-21T12:59:04.844Z,10.60
2024-02-21T13:02:07.325Z,10.60
2024-02-21T13:05:09.332Z,10.70
2024-02-21T13:08:11.325Z,10.70
2024-02-21T13:11:13.665Z,10.70
2024-02-21T13:14:15.438Z,10.70
2024-02-21T13:17:17.981Z,10.70
2024-02-21T13:20:20.098Z,10.80
2024-02-21T13:23:24.566Z,10.80
2024-02-21T13:26:26.821Z,10.80
2024-02-21T13:29:29.794Z,10.80
2024-02-21T13:32:31.842Z,10.80
2024-02-21T13:35:33.657Z,10.80
2024-02-21T13:38:35.646Z,10.80
2024-02-21T13:41:37.617Z,10.80
2024-02-21T13:44:39.412Z,10.80
2024-02-21T13:47:41.179Z,10.80
2024-02-21T13:50:44.793Z,10.90
2024-02-21T13:53:46.680Z,10.90
2024-02-21T13:56:48.398Z,10.90
2024-02-21T13:59:50.501Z,10.90
2024-02-21T14:02:52.235Z,10.90
2024-02-21T14:05:54.014Z,10.90
2024-02-21T14:08:56.187Z,10.90
2024-02-21T14:11:58.190Z,10.90
2024-02-21T14:14:59.945Z,10.90
2024-02-21T14:18:01.793Z,10.80
2024-02-21T14:21:03.830Z,10.90
2024-02-21T14:24:06.718Z,10.80
2024-02-21T14:27:09.921Z,10.80
2024-02-21T14:30:13.105Z,10.80
2024-02-21T14:33:14.867Z,10.80
2024-02-21T14:36:16.679Z,10.80
2024-02-21T14:39:18.603Z,10.70
2024-02-21T14:42:20.328Z,10.70
2024-02-21T14:45:24.014Z,10.70
2024-02-21T14:48:27.283Z,10.70
2024-02-21T14:51:32.052Z,10.70
2024-02-21T14:54:33.889Z,10.80
2024-02-21T14:57:37.371Z,10.80
2024-02-21T15:00:39.908Z,10.90
2024-02-21T15:03:41.727Z,10.80
2024-02-21T15:06:46.175Z,10.80
2024-02-21T15:09:48.060Z,10.80
2024-02-21T15:12:49.882Z,10.80
2024-02-21T15:15:52.633Z,10.80
2024-02-21T15:18:54.455Z,10.80
2024-02-21T15:21:56.370Z,10.80
2024-02-21T15:24:58.089Z,10.80
2024-02-21T15:28:00.395Z,10.80
2024-02-21T15:31:02.210Z,10.80
2024-02-21T15:34:04.018Z,10.80
2024-02-21T15:37:05.841Z,10.80
2024-02-21T15:40:09.401Z,10.80
2024-02-21T15:43:11.431Z,10.80
2024-02-21T15:46:13.953Z,10.80
2024-02-21T15:49:15.933Z,10.90
2024-02-21T15:52:17.715Z,10.90
2024-02-21T15:55:20.768Z,10.90
2024-02-21T15:58:23.921Z,10.90
2024-02-21T16:01:25.981Z,10.90
2024-02-21T16:04:32.618Z,11.00
2024-02-21T16:07:35.155Z,11.00
2024-02-21T16:10:36.944Z,11.00
2024-02-21T16:13:38.726Z,11.00
2024-02-21T16:16:41.482Z,11.00
2024-02-21T16:19:43.617Z,11.00
2024-02-21T16:22:46.245Z,11.00
2024-02-21T16:25:49.507Z,11.10
2024-02-21T16:28:51.458Z,11.10
2024-02-21T16:31:54.095Z,11.10
2024-02-21T16:34:56.064Z,11.10
2024-02-21T16:37:57.979Z,11.10
2024-02-21T16:41:01.046Z,11.20
2024-02-21T16:44:03.132Z,11.20
2024-02-21T16:47:08.021Z,11.20
2024-02-21T16:50:10.166Z,11.20
2024-02-21T16:53:11.958Z,11.30
2024-02-21T16:56:14.122Z,11.20
2024-02-21T16:59:16.062Z,11.20
2024-02-21T17:02:17.927Z,11.20
2024-02-21T17:05:21.477Z,11.20
2024-02-21T17:08:23.370Z,11.30
2024-02-21T17:11:25.201Z,11.30
2024-02-21T17:14:27.098Z,11.30
2024-02-21T17:17:28.875Z,11.30
2024-02-21T17:20:30.952Z,11.40
2024-02-21T17:23:32.708Z,11.40
2024-02-21T17:26:34.534Z,11.40
2024-02-21T17:29:36.535Z,11.40
2024-02-21T17:32:38.432Z,11.40
2024-02-21T17:35:41.671Z,11.50
2024-02-21T17:38:43.477Z,11.50
2024-02-21T17:41:46.124Z,11.50
2024-02-21T17:44:48.832Z,11.50
2024-02-21T17:47:52.465Z,11.60
2024-02-21T17:50:54.463Z,11.60
2024-02-21T17:53:56.941Z,11.60
2024-02-21T17:57:01.592Z,11.70
2024-02-21T18:00:05.448Z,11.70
2024-02-21T18:03:08.881Z,11.80
2024-02-21T18:06:12.076Z,11.80
2024-02-21T18:09:14.939Z,11.80
2024-02-21T18:12:17.052Z,11.80
2024-02-21T18:15:18.875Z,11.80
2024-02-21T18:18:20.712Z,11.80
2024-02-21T18:21:23.372Z,11.80
2024-02-21T18:24:26.156Z,11.80
2024-02-21T18:27:28.877Z,11.80
2024-02-21T18:30:30.689Z,11.80
2024-02-21T18:33:32.420Z,11.90
2024-02-21T18:36:34.176Z,11.90
2024-02-21T18:39:35.996Z,12.00
2024-02-21T18:42:38.174Z,12.00
2024-02-21T18:45:39.890Z,12.00
2024-02-21T18:48:47.300Z,12.10
2024-02-21T18:51:50.245Z,12.10
2024-02-21T18:54:51.985Z,12.10
2024-02-21T18:57:53.759Z,12.00
2024-02-21T19:00:55.916Z,12.00
2024-02-21T19:03:58.030Z,12.00
2024-02-21T19:06:59.808Z,12.00
2024-02-21T19:10:01.969Z,11.90
2024-02-21T19:13:03.823Z,11.90
2024-02-21T19:16:06.587Z,11.90
2024-02-21T19:19:08.361Z,11.90
2024-02-21T19:22:10.133Z,11.90
2024-02-21T19:25:18.135Z,11.90
2024-02-21T19:28:22.288Z,11.90
2024-02-21T19:31:25.189Z,11.80
2024-02-21T19:34:29.040Z,11.80
2024-02-21T19:37:32.038Z,11.70
2024-02-21T19:40:34.149Z,11.70
2024-02-21T19:43:36.115Z,11.70
2024-02-21T19:46:38.988Z,11.70
2024-02-21T19:49:41.662Z,11.70
2024-02-21T19:52:43.481Z,11.70
2024-02-21T19:55:45.368Z,11.70
2024-02-21T19:58:47.218Z,11.70
2024-02-21T20:01:49.317Z,11.70
2024-02-21T20:04:51.167Z,11.60
2024-02-21T20:07:53.025Z,11.60
2024-02-21T20:10:56.162Z,11.50
2024-02-21T20:13:58.527Z,11.40
2024-02-21T20:17:00.348Z,11.40
2024-02-21T20:20:04.137Z,11.40
2024-02-21T20:23:07.469Z,11.40
2024-02-21T20:26:09.470Z,11.40
2024-02-21T20:29:17.003Z,11.40
2024-02-21T20:32:18.804Z,11.30
2024-02-21T20:35:21.479Z,11.30
2024-02-21T20:38:23.706Z,11.30
2024-02-21T20:41:25.726Z,11.20
2024-02-21T20:44:28.270Z,11.20
2024-02-21T20:47:30.147Z,11.20
2024-02-21T20:50:33.117Z,11.10
2024-02-21T20:53:34.929Z,11.10
2024-02-21T20:56:37.327Z,11.10
2024-02-21T20:59:40.214Z,11.10
2024-02-21T21:02:42.012Z,11.00
2024-02-21T21:05:44.313Z,11.00
2024-02-21T21:08:46.765Z,11.10
2024-02-21T21:11:48.745Z,11.00
2024-02-21T21:14:50.505Z,11.10
2024-02-21T21:17:53.325Z,11.00
2024-02-21T21:20:55.314Z,11.00
2024-02-21T21:23:57.164Z,11.00
2024-02-21T21:26:59.010Z,11.00
2024-02-21T21:30:00.902Z,11.00
2024-02-21T21:33:05.358Z,11.00
2024-02-21T21:36:08.046Z,11.00
2024-02-21T21:39:09.896Z,10.90
2024-02-21T21:42:11.695Z,10.90
2024-02-21T21:45:14.320Z,10.90
2024-02-21T21:48:16.349Z,10.90
2024-02-21T21:51:18.256Z,10.90
2024-02-21T21:54:20.072Z,10.90
2024-02-21T21:57:21.854Z,10.90
2024-02-21T22:00:23.892Z,10.90
2024-02-21T22:03:25.643Z,10.90
2024-02-21T22:06:27.552Z,10.90
2024-02-21T22:09:29.493Z,10.80
2024-02-21T22:12:31.708Z,10.80
2024-02-21T22:15:33.818Z,10.80
2024-02-21T22:18:35.646Z,10.80
2024-02-21T22:21:37.665Z,10.70
2024-02-21T22:24:39.434Z,10.70
2024-02-21T22:27:41.145Z,10.70
2024-02-21T22:30:43.403Z,10.60
2024-02-21T22:33:45.212Z,10.60
2024-02-21T22:36:47.310Z,10.60
2024-02-21T22:39:49.705Z,10.60
2024-02-21T22:42:52.368Z,10.50
2024-02-21T22:45:54.148Z,10.50
2024-02-21T22:48:55.897Z,10.50
2024-02-21T22:51:58.981Z,10.40
2024-02-21T22:55:01.338Z,10.40
2024-02-21T22:58:03.205Z,10.40
2024-02-21T23:03:44.468Z,10.30
2024-02-21T23:06:47.148Z,10.20
2024-02-21T23:09:48.927Z,10.20
2024-02-21T23:12:50.489Z,10.20
2024-02-21T23:15:52.533Z,10.20
2024-02-21T23:18:54.328Z,10.20
2024-02-21T23:21:56.095Z,10.20
2024-02-21T23:24:57.723Z,10.20
2024-02-21T23:27:59.344Z,10.10
2024-02-21T23:31:00.992Z,10.10
2024-02-21T23:34:02.835Z,10.10
2024-02-21T23:37:04.716Z,10.10
2024-02-21T23:40:07.556Z,10.10
2024-02-21T23:43:09.126Z,10.20
2024-02-21T23:46:10.693Z,10.20
2024-02-21T23:49:12.437Z,10.20
2024-02-21T23:52:14.960Z,10.30
2024-02-21T23:55:16.594Z,10.30
2024-02-21T23:58:18.137Z,10.30
